Time;durP1;ratioP1;P1;durP2;ratioP2;P2;SDS_P1;SDS_P2;PMS_P1;PMS_P2;Temp;Humidity;BMP_temperature;BMP_pressure;BME280_temperature;BME280_humidity;BME280_pressure;Samples;Min_cycle;Max_cycle;Signal;HPM_P1;HPM_P2
2022/06/18 00:00:13;;;;;;;7.38;3.55;;;;;;;22.87;100.00;148467.50;5096455;28;20067;-78
2022/06/18 00:02:47;;;;;;;7.68;3.20;;;;;;;22.81;100.00;148453.41;5093206;28;20036;-82
2022/06/18 00:05:17;;;;;;;8.32;3.47;;;;;;;22.79;100.00;148448.25;5093984;28;20032;-82
2022/06/18 00:07:46;;;;;;;8.98;3.67;;;;;;;22.63;100.00;148408.50;5091918;28;20028;-82
2022/06/18 00:10:17;;;;;;;9.15;4.00;;;;;;;22.67;100.00;148417.44;5092497;28;20012;-80
2022/06/18 00:15:33;;;;;;;7.00;3.80;;;;;;;22.58;100.00;148396.94;5093484;28;20047;-81
2022/06/18 00:18:00;;;;;;;6.00;3.53;;;;;;;22.56;100.00;148391.81;5091989;28;20016;-84
2022/06/18 00:20:32;;;;;;;5.60;3.38;;;;;;;22.56;100.00;148390.56;5092031;28;20028;-82
2022/06/18 00:23:01;;;;;;;8.60;3.38;;;;;;;22.48;100.00;148371.31;5092224;28;20066;-80
2022/06/18 00:25:32;;;;;;;8.40;3.70;;;;;;;22.47;100.00;148367.47;5089391;28;20028;-75
2022/06/18 00:27:58;;;;;;;6.40;3.75;;;;;;;22.46;100.00;148366.16;5090773;28;20058;-76
2022/06/18 00:30:27;;;;;;;8.15;3.80;;;;;;;22.45;100.00;148362.28;5092218;28;20387;-76
2022/06/18 00:32:54;;;;;;;7.35;3.85;;;;;;;22.37;100.00;148344.38;5089574;28;20383;-74
2022/06/18 00:35:21;;;;;;;6.40;3.78;;;;;;;22.31;100.00;148327.66;5090462;28;20032;-75
2022/06/18 00:37:54;;;;;;;7.22;3.80;;;;;;;22.24;100.00;148312.22;5090350;28;20044;-78
2022/06/18 00:40:28;;;;;;;9.07;3.60;;;;;;;22.28;100.00;148319.91;5090376;28;20111;-80
2022/06/18 00:42:56;;;;;;;8.02;3.70;;;;;;;22.29;100.00;148322.50;5090068;28;20097;-82
2022/06/18 00:45:27;;;;;;;6.63;3.92;;;;;;;22.31;100.00;148327.66;5091242;28;20074;-81
2022/06/18 00:48:06;;;;;;;8.32;3.80;;;;;;;22.19;100.00;148299.41;5090957;28;20024;-81
2022/06/18 00:50:43;;;;;;;8.70;3.80;;;;;;;22.01;100.00;148254.50;5091049;28;20024;-78
2022/06/18 00:53:15;;;;;;;8.25;4.00;;;;;;;22.03;100.00;148258.34;5091117;28;20028;-79
2022/06/18 00:55:47;;;;;;;7.90;4.00;;;;;;;22.07;100.00;148267.34;5091087;28;20434;-81
2022/06/18 00:58:43;;;;;;;8.40;3.90;;;;;;;22.09;100.00;148272.47;5091379;28;20024;-83
2022/06/18 01:01:22;;;;;;;6.45;3.88;;;;;;;22.05;100.00;148263.50;5088171;28;20043;-81
2022/06/18 01:03:50;;;;;;;8.63;4.00;;;;;;;22.05;100.00;148264.78;5091358;28;20024;-79
2022/06/18 01:06:28;;;;;;;10.20;4.20;;;;;;;22.00;100.00;148250.66;5091074;28;20035;-80
2022/06/18 01:09:03;;;;;;;8.27;4.13;;;;;;;21.99;100.00;148248.13;5091254;28;20020;-83
2022/06/18 01:11:31;;;;;;;8.45;4.32;;;;;;;22.02;100.00;148255.81;5091566;28;20028;-82
2022/06/18 01:13:57;;;;;;;9.20;3.95;;;;;;;21.99;100.00;148248.13;5093284;28;20468;-82
2022/06/18 01:16:25;;;;;;;8.55;4.20;;;;;;;21.96;100.00;148241.69;5095075;28;20063;-83
2022/06/18 01:18:52;;;;;;;8.05;4.38;;;;;;;21.95;100.00;148239.09;5095553;28;20085;-82
2022/06/18 01:21:35;;;;;;;8.40;4.47;;;;;;;21.86;100.00;148217.34;5095734;28;20040;-82
2022/06/18 01:24:21;;;;;;;10.90;4.30;;;;;;;21.92;100.00;148230.16;5094408;28;20101;-84
2022/06/18 01:26:49;;;;;;;8.52;4.00;;;;;;;21.95;100.00;148237.84;5095072;28;20460;-82
2022/06/18 01:29:15;;;;;;;8.45;4.20;;;;;;;21.90;100.00;148226.28;5076506;28;20346;-84
2022/06/18 01:31:41;;;;;;;7.70;4.13;;;;;;;21.84;100.00;148212.16;5095645;28;20046;-83
2022/06/18 01:34:09;;;;;;;6.60;4.07;;;;;;;21.85;100.00;148213.50;5081023;28;20021;-82
2022/06/18 01:36:36;;;;;;;12.90;4.72;;;;;;;21.83;100.00;148209.63;5098161;28;20031;-82
2022/06/18 01:39:04;;;;;;;12.52;4.43;;;;;;;21.82;100.00;148207.06;5099648;28;20055;-82
2022/06/18 01:41:52;;;;;;;9.52;4.55;;;;;;;21.81;100.00;148204.53;5094020;28;20067;-76
2022/06/18 01:44:44;;;;;;;8.63;4.20;;;;;;;21.76;100.00;148191.66;5095100;28;20392;-82
2022/06/18 01:47:24;;;;;;;8.65;4.15;;;;;;;21.77;100.00;148193.00;5095318;28;20123;-82
2022/06/18 01:49:59;;;;;;;;;;;;;;;21.72;100.00;148181.44;5095036;28;20153;-81
2022/06/18 01:52:30;;;;;;;8.93;4.00;;;;;;;21.70;100.00;148176.28;5095535;28;19912;-82
2022/06/18 01:55:00;;;;;;;7.40;4.45;;;;;;;21.65;100.00;148163.47;5095305;28;20024;-83
2022/06/18 01:57:39;;;;;;;9.10;4.47;;;;;;;21.62;100.00;148155.78;5094524;28;20433;-81
2022/06/18 02:00:12;;;;;;;7.80;3.90;;;;;;;21.62;100.00;148157.03;5095346;28;20274;-83
2022/06/18 02:02:41;;;;;;;8.10;3.95;;;;;;;21.59;100.00;148148.09;5095686;28;20282;-81
2022/06/18 02:05:08;;;;;;;12.13;4.80;;;;;;;21.61;100.00;148153.19;5095374;28;20153;-83
2022/06/18 02:07:34;;;;;;;7.55;3.78;;;;;;;21.59;100.00;148149.34;5095029;28;20028;-84
2022/06/18 02:10:07;;;;;;;8.63;4.55;;;;;;;21.50;100.00;148127.59;5093202;28;20107;-76
2022/06/18 02:12:39;;;;;;;9.95;4.68;;;;;;;21.51;100.00;148130.13;5092964;28;20028;-75
2022/06/18 02:15:18;;;;;;;11.07;4.60;;;;;;;21.50;100.00;148127.59;5093386;28;20058;-76
2022/06/18 02:17:44;;;;;;;10.80;4.80;;;;;;;21.48;100.00;148121.13;5075727;28;20468;-76
2022/06/18 02:20:22;;;;;;;10.70;4.93;;;;;;;21.42;100.00;148107.00;5093623;28;20031;-78
2022/06/18 02:22:52;;;;;;;9.57;4.47;;;;;;;21.40;100.00;148100.63;5092810;28;20380;-77
2022/06/18 02:25:21;;;;;;;11.80;4.50;;;;;;;21.31;100.00;148078.81;5092265;28;20089;-77
2022/06/18 02:27:49;;;;;;;12.50;4.47;;;;;;;21.30;100.00;148076.22;5092803;28;20020;-77
2022/06/18 02:30:23;;;;;;;12.80;4.57;;;;;;;21.19;100.00;148048.03;5092990;28;20028;-77
2022/06/18 02:33:13;;;;;;;11.05;4.53;;;;;;;21.25;100.00;148063.41;5074953;28;20480;-78
2022/06/18 02:35:39;;;;;;;;;;;;;;;21.19;100.00;148048.03;5093353;28;20028;-75
2022/06/18 02:38:18;;;;;;;10.60;5.25;;;;;;;21.04;100.00;148012.16;5092959;28;19919;-77
2022/06/18 02:40:44;;;;;;;9.30;4.63;;;;;;;21.05;100.00;148014.75;5087794;28;20035;-79
2022/06/18 02:43:13;;;;;;;11.25;5.35;;;;;;;21.01;100.00;148004.47;5092707;28;20024;-77
2022/06/18 02:45:40;;;;;;;13.50;5.43;;;;;;;20.99;100.00;147999.38;5091884;28;20031;-76
2022/06/18 02:48:09;;;;;;;11.02;5.22;;;;;;;20.98;100.00;147996.78;5092321;28;20065;-78
2022/06/18 02:50:39;;;;;;;11.45;5.20;;;;;;;20.89;100.00;147974.97;5092373;28;20078;-77
2022/06/18 02:53:08;;;;;;;10.43;5.07;;;;;;;20.77;100.00;147944.22;5090831;28;20032;-77
2022/06/18 02:55:44;;;;;;;11.00;5.30;;;;;;;20.65;100.00;147914.78;5091414;28;20066;-80
2022/06/18 02:58:28;;;;;;;10.30;4.95;;;;;;;20.64;100.00;147912.16;5092174;28;20563;-76
2022/06/18 03:01:10;;;;;;;9.35;5.38;;;;;;;20.62;100.00;147908.31;5091871;28;20088;-76
2022/06/18 03:03:39;;;;;;;12.77;4.80;;;;;;;20.57;100.00;147894.19;5092132;28;20028;-75
2022/06/18 03:06:07;;;;;;;12.70;5.50;;;;;;;20.43;100.00;147860.91;5075652;28;20031;-75
2022/06/18 03:08:34;;;;;;;13.30;5.95;;;;;;;20.43;100.00;147859.59;5091887;28;20028;-76
2022/06/18 03:13:45;;;;;;;12.10;5.70;;;;;;;20.36;100.00;147841.69;5091850;28;20047;-76
2022/06/18 03:16:16;;;;;;;13.65;5.68;;;;;;;20.26;100.00;147818.63;5090852;28;20039;-75
2022/06/18 03:18:44;;;;;;;13.05;6.05;;;;;;;20.16;100.00;138459.81;5090736;28;20487;-75
2022/06/18 03:21:23;;;;;;;11.55;5.80;;;;;;;20.14;100.00;121912.66;5089950;28;20449;-76
2022/06/18 03:23:49;;;;;;;12.20;6.10;;;;;;;20.03;100.00;119141.22;5090477;28;20142;-76
2022/06/18 03:26:16;;;;;;;10.70;5.68;;;;;;;20.02;100.00;108500.00;5092776;28;20026;-82
2022/06/18 03:28:42;;;;;;;11.73;5.43;;;;;;;20.08;100.00;107824.97;5089477;28;20498;-82
2022/06/18 03:31:11;;;;;;;13.52;6.20;;;;;;;20.03;100.00;99942.03;5091801;28;20107;-80
2022/06/18 03:33:38;;;;;;;12.95;6.18;;;;;;;19.94;100.00;94116.59;5091203;28;20032;-79
2022/06/18 03:36:04;;;;;;;13.57;5.75;;;;;;;19.89;100.00;87626.41;5090761;28;20100;-80
2022/06/18 03:38:31;;;;;;;12.40;6.18;;;;;;;19.86;100.00;75028.09;5091041;28;20039;-75
2022/06/18 03:40:58;;;;;;;14.52;6.20;;;;;;;19.91;100.00;69260.72;5092702;28;20032;-82
2022/06/18 03:43:26;;;;;;;15.23;7.10;;;;;;;19.92;100.00;67565.47;5092021;28;20024;-80
2022/06/18 03:45:56;;;;;;;14.75;6.05;;;;;;;19.86;100.00;60441.31;5092507;28;20019;-81
2022/06/18 03:48:36;;;;;;;12.25;6.35;;;;;;;19.91;100.00;57062.09;5094357;28;20134;-81
2022/06/18 03:51:01;;;;;;;15.00;5.93;;;;;;;19.85;100.00;54350.31;5095138;28;20028;-82
2022/06/18 03:53:27;;;;;;;12.75;6.45;;;;;;;19.87;100.00;53338.22;5094545;28;20038;-81
2022/06/18 03:55:52;;;;;;;14.35;6.90;;;;;;;19.85;100.00;50633.78;5089264;28;20039;-75
2022/06/18 03:58:19;;;;;;;15.73;6.90;;;;;;;19.97;100.00;50644.25;5090413;28;20035;-74
2022/06/18 04:00:45;;;;;;;13.38;6.22;;;;;;;19.98;100.00;48956.94;5089628;28;20119;-75
2022/06/18 04:03:10;;;;;;;13.93;6.88;;;;;;;19.94;100.00;52330.75;5089094;28;20107;-75
2022/06/18 04:05:40;;;;;;;13.93;6.53;;;;;;;20.07;100.00;50316.38;5090046;28;20020;-75
2022/06/18 04:08:07;;;;;;;17.38;6.35;;;;;;;20.05;100.00;56400.13;5090400;28;20031;-74
2022/06/18 04:10:32;;;;;;;13.48;7.25;;;;;;;20.07;100.00;50653.75;5089215;28;20035;-78
2022/06/18 04:12:58;;;;;;;14.05;6.57;;;;;;;20.14;100.00;47957.63;5090176;28;20032;-75
2022/06/18 04:15:26;;;;;;;13.60;6.43;;;;;;;20.23;100.00;51344.94;5090357;28;20020;-75
2022/06/18 04:17:51;;;;;;;15.90;6.50;;;;;;;20.35;100.00;55752.94;5089261;28;20043;-76
2022/06/18 04:20:30;;;;;;;17.33;6.75;;;;;;;20.49;100.00;55767.41;5091008;28;20074;-75
2022/06/18 04:22:56;;;;;;;15.38;6.60;;;;;;;20.65;100.00;62561.59;5090224;28;20032;-74
2022/06/18 04:25:22;;;;;;;15.82;6.60;;;;;;;20.75;100.00;69024.00;5091360;28;20024;-75
2022/06/18 04:27:48;;;;;;;14.65;7.07;;;;;;;20.90;100.00;86413.72;5090960;28;20024;-74
2022/06/18 04:30:17;;;;;;;18.75;7.50;;;;;;;21.15;100.00;95681.50;5090012;28;20081;-77
2022/06/18 04:32:45;;;;;;;16.20;6.60;;;;;;;21.30;100.00;107019.53;5089892;28;20687;-76
2022/06/18 04:35:12;;;;;;;13.60;7.25;;;;;;;21.45;100.00;109107.69;5090700;28;20027;-76
2022/06/18 04:37:41;;;;;;;12.52;6.45;;;;;;;21.63;100.00;126015.84;5090403;28;20610;-79
2022/06/18 04:40:09;;;;;;;16.63;6.95;;;;;;;21.64;100.00;137768.06;5090448;28;20024;-78
2022/06/18 04:42:34;;;;;;;11.73;6.57;;;;;;;22.11;100.00;148277.59;5093224;28;20024;-79
2022/06/18 04:44:59;;;;;;;13.32;6.32;;;;;;;22.01;100.00;148254.50;5075611;28;20050;-77
2022/06/18 04:47:25;;;;;;;18.65;6.78;;;;;;;22.27;100.00;148317.38;5097122;28;20060;-78
2022/06/18 04:49:51;;;;;;;16.02;6.43;;;;;;;22.36;100.00;148340.53;5092179;28;20417;-79
2022/06/18 04:52:19;;;;;;;12.65;6.45;;;;;;;22.43;100.00;148358.44;5090071;28;20020;-82
2022/06/18 04:54:46;;;;;;;15.00;6.63;;;;;;;22.69;100.00;148422.63;5092044;28;20020;-81
2022/06/18 04:57:11;;;;;;;14.13;6.28;;;;;;;22.73;100.00;148434.16;5077147;28;20035;-82
2022/06/18 04:59:38;;;;;;;16.52;7.05;;;;;;;22.93;100.00;148482.91;5089724;28;20476;-82
2022/06/18 05:02:06;;;;;;;14.70;6.32;;;;;;;22.95;100.00;148488.06;5093040;28;20024;-78
2022/06/18 05:04:34;;;;;;;15.13;6.57;;;;;;;23.16;100.00;148540.72;5090347;28;20040;-80
2022/06/18 05:07:00;;;;;;;17.77;6.50;;;;;;;23.21;100.00;148553.56;5090869;28;20024;-78
2022/06/18 05:09:27;;;;;;;13.02;6.35;;;;;;;23.35;100.00;148586.91;5090537;28;20151;-83
2022/06/18 05:11:53;;;;;;;18.42;6.28;;;;;;;23.70;100.00;148675.50;5091928;28;20024;-81
2022/06/18 05:14:19;;;;;;;18.30;6.78;;;;;;;23.48;100.00;148621.56;5090509;28;20488;-81
2022/06/18 05:16:46;;;;;;;14.20;6.72;;;;;;;23.48;100.00;148621.56;5090760;28;20052;-78
2022/06/18 05:19:33;;;;;;;13.77;6.15;;;;;;;23.33;100.00;148581.78;5090918;28;20025;-82
2022/06/18 05:22:00;;;;;;;15.40;5.95;;;;;;;22.76;100.00;148440.56;5073880;28;20028;-82
2022/06/18 05:24:26;;;;;;;14.20;6.82;;;;;;;22.99;100.00;148497.03;5090928;28;20048;-79
2022/06/18 05:26:56;;;;;;;18.70;7.20;;;;;;;22.72;100.00;148431.59;5090595;28;20027;-81
2022/06/18 05:29:25;;;;;;;13.40;6.28;;;;;;;22.85;100.00;148463.66;5090856;28;20506;-80
2022/06/18 05:31:52;;;;;;;13.55;6.68;;;;;;;22.67;100.00;148418.78;5093930;28;20476;-83
2022/06/18 05:34:22;;;;;;;14.85;6.57;;;;;;;22.44;100.00;148359.75;5093834;28;20039;-84
2022/06/18 05:36:49;;;;;;;14.75;7.13;;;;;;;22.23;100.00;148308.38;5092515;28;20111;-83
2022/06/18 05:39:18;;;;;;;13.45;6.60;;;;;;;22.53;100.00;148384.13;5091923;28;20028;-81
2022/06/18 05:41:45;;;;;;;14.75;6.90;;;;;;;22.66;100.00;148416.19;5090347;28;20519;-82
2022/06/18 05:44:12;;;;;;;13.40;6.22;;;;;;;23.08;100.00;148521.44;5090734;28;20099;-83
2022/06/18 05:46:40;;;;;;;13.82;6.88;;;;;;;23.13;100.00;148533.00;5092773;28;20050;-82
2022/06/18 05:49:09;;;;;;;13.10;6.57;;;;;;;22.76;100.00;148440.56;5093223;28;20028;-82
2022/06/18 05:51:34;;;;;;;15.65;6.70;;;;;;;23.14;100.00;148535.59;5091930;28;20366;-81
2022/06/18 05:54:03;;;;;;;14.80;6.50;;;;;;;23.20;100.00;148549.72;5092193;28;20063;-81
2022/06/18 05:56:28;;;;;;;12.25;6.45;;;;;;;22.94;100.00;148485.47;5090971;28;20039;-83
2022/06/18 05:58:54;;;;;;;15.23;6.72;;;;;;;22.94;100.00;148486.75;5090677;28;20020;-79
2022/06/18 06:01:19;;;;;;;14.07;6.60;;;;;;;22.95;100.00;148488.06;5094457;28;20089;-81
2022/06/18 06:03:44;;;;;;;13.88;6.65;;;;;;;23.04;100.00;148511.16;5094189;28;20032;-83
2022/06/18 06:06:10;;;;;;;14.88;7.20;;;;;;;22.77;100.00;148444.41;5097835;28;20028;-82
2022/06/18 06:08:36;;;;;;;17.05;7.03;;;;;;;22.98;100.00;148494.44;5079864;28;20036;-82
2022/06/18 06:13:46;;;;;;;17.65;7.80;;;;;;;22.95;100.00;148488.06;5100094;28;20116;-79
2022/06/18 06:16:13;;;;;;;15.02;7.50;;;;;;;22.89;100.00;148472.66;5099413;28;20062;-79
2022/06/18 06:18:38;;;;;;;18.30;7.18;;;;;;;23.00;100.00;148500.88;5098474;28;20024;-75
2022/06/18 06:21:04;;;;;;;16.38;7.53;;;;;;;23.02;100.00;148506.00;5078458;28;20036;-74
2022/06/18 06:23:30;;;;;;;18.65;7.90;;;;;;;23.08;100.00;148520.13;5111274;28;20036;-75
2022/06/18 06:25:56;;;;;;;15.40;7.80;;;;;;;23.12;100.00;148530.47;5092201;28;20081;-75
2022/06/18 06:28:24;;;;;;;11.75;8.02;;;;;;;23.10;100.00;148526.63;5093550;28;20024;-77
2022/06/18 06:30:52;;;;;;;14.65;8.25;;;;;;;23.16;100.00;148539.44;5092078;28;20117;-76
2022/06/18 06:33:18;;;;;;;18.38;7.32;;;;;;;23.34;100.00;148585.66;5093468;28;20020;-77
2022/06/18 06:35:44;;;;;;;18.00;7.47;;;;;;;23.49;100.00;148622.84;5110101;28;20040;-75
2022/06/18 06:38:10;;;;;;;18.80;7.53;;;;;;;23.25;100.00;148562.53;5091156;28;20180;-80
2022/06/18 06:40:37;;;;;;;14.57;7.10;;;;;;;23.67;100.00;148667.81;5094018;28;20095;-77
2022/06/18 06:43:03;;;;;;;15.98;6.95;;;;;;;24.21;100.00;148802.69;5092932;28;20500;-76
2022/06/18 06:45:31;;;;;;;16.15;7.45;;;;;;;24.38;100.00;148846.34;5092611;28;20093;-76
2022/06/18 06:47:58;;;;;;;17.67;7.00;;;;;;;24.54;100.00;148884.88;5092964;28;20024;-77
2022/06/18 06:50:26;;;;;;;16.13;7.03;;;;;;;24.76;100.00;148940.16;5092289;28;20486;-75
2022/06/18 06:52:52;;;;;;;12.80;6.70;;;;;;;24.67;100.00;148918.34;5090838;28;20020;-75
2022/06/18 06:58:08;;;;;;;16.48;7.38;;;;;;;24.77;100.00;148941.50;5092412;28;20067;-75
2022/06/18 07:00:40;;;;;;;15.50;7.35;;;;;;;24.78;100.00;148945.34;5090985;28;20160;-75
2022/06/18 07:03:13;;;;;;;16.60;6.47;;;;;;;24.32;100.00;148830.94;5092534;28;20020;-75
2022/06/18 07:05:39;;;;;;;16.08;6.88;;;;;;;24.82;100.00;148955.59;5074448;28;20051;-81
2022/06/18 07:08:05;;;;;;;10.95;6.85;;;;;;;25.17;100.00;149043.00;5091807;28;20020;-74
2022/06/18 07:10:30;;;;;;;16.55;7.05;;;;;;;25.74;100.00;149185.69;5092722;28;20031;-76
2022/06/18 07:12:56;;;;;;;12.48;6.25;;;;;;;26.10;100.00;149275.78;5091544;28;20450;-76
2022/06/18 07:15:21;;;;;;;12.73;5.97;;;;;;;26.54;100.00;149385.06;5093672;28;20490;-79
2022/06/18 07:17:47;;;;;;;13.63;6.35;;;;;;;26.61;100.00;149401.78;5094158;28;20384;-75
2022/06/18 07:20:15;;;;;;;16.20;6.70;;;;;;;27.45;100.00;149612.88;5092691;28;20048;-76
2022/06/18 07:22:42;;;;;;;14.10;5.93;;;;;;;27.23;100.00;149558.78;5070730;28;20055;-78
2022/06/18 07:25:08;;;;;;;11.38;5.57;;;;;;;27.42;100.00;149603.88;5084568;28;20147;-75
2022/06/18 07:27:35;;;;;;;11.82;5.75;;;;;;;27.02;100.00;149504.78;5088982;28;20031;-75
2022/06/18 07:30:00;;;;;;;13.57;5.85;;;;;;;27.33;100.00;149581.97;5090515;28;20472;-75
2022/06/18 07:32:26;;;;;;;10.05;5.45;;;;;;;27.54;100.00;149636.03;5090977;28;20021;-75
2022/06/18 07:34:53;;;;;;;15.60;6.30;;;;;;;27.46;100.00;149615.47;5088971;28;20379;-76
2022/06/18 07:37:20;;;;;;;17.20;5.70;;;;;;;27.19;100.00;149547.19;5090520;28;20443;-79
2022/06/18 07:39:46;;;;;;;13.02;6.70;;;;;;;27.11;100.00;149527.88;5092506;28;20024;-74
2022/06/18 07:42:14;;;;;;;13.63;5.80;;;;;;;26.79;100.00;149448.16;5091300;28;20055;-78
2022/06/18 07:44:40;;;;;;;12.77;6.20;;;;;;;27.39;100.00;149597.44;5091172;28;20024;-76
2022/06/18 07:47:06;;;;;;;13.63;5.80;;;;;;;27.72;100.00;149679.84;5091247;28;20020;-76
2022/06/18 07:49:31;;;;;;;9.88;5.47;;;;;;;27.27;100.00;149566.50;5091326;28;20031;-76
2022/06/18 07:51:58;;;;;;;13.02;6.03;;;;;;;27.40;100.00;149601.28;5090601;28;20031;-77
2022/06/18 07:54:23;;;;;;;10.00;5.18;;;;;;;27.17;100.00;149543.34;5090617;28;20051;-77
2022/06/18 07:56:49;;;;;;;13.63;5.90;;;;;;;26.55;100.00;149386.34;5089579;28;21029;-83
2022/06/18 07:59:17;;;;;;;11.55;5.60;;;;;;;26.94;100.00;149484.16;5092411;28;20047;-76
2022/06/18 08:01:42;;;;;;;15.77;5.95;;;;;;;26.79;100.00;149448.16;5091381;28;20031;-82
2022/06/18 08:04:08;;;;;;;10.27;5.82;;;;;;;26.11;100.00;149278.31;5072794;28;20032;-82
2022/06/18 08:06:33;;;;;;;15.48;5.90;;;;;;;26.27;100.00;149318.22;5090299;28;20081;-77
2022/06/18 08:09:00;;;;;;;15.48;5.60;;;;;;;26.96;100.00;149490.59;5088729;28;20039;-76
2022/06/18 08:11:28;;;;;;;15.05;5.80;;;;;;;26.56;100.00;149388.94;5089561;28;20031;-75
2022/06/18 08:13:56;;;;;;;9.85;5.55;;;;;;;27.24;100.00;149560.09;5089352;28;20028;-76
2022/06/18 08:16:22;;;;;;;12.27;6.13;;;;;;;27.94;100.00;149735.19;5089011;28;20488;-78
2022/06/18 08:18:48;;;;;;;13.02;6.43;;;;;;;27.41;100.00;149602.63;5089324;28;20111;-79
2022/06/18 08:21:24;;;;;;;8.65;4.97;;;;;;;26.58;100.00;149394.06;5090097;28;20043;-82
2022/06/18 08:23:51;;;;;;;11.80;5.55;;;;;;;26.70;100.00;149425.00;5087807;28;20154;-78
2022/06/18 08:26:18;;;;;;;11.07;4.97;;;;;;;27.02;100.00;149504.78;5090232;28;20085;-80
2022/06/18 08:28:43;;;;;;;16.42;5.20;;;;;;;27.15;100.00;149536.94;5092564;28;20035;-81
2022/06/18 08:31:10;;;;;;;12.52;5.70;;;;;;;27.63;100.00;149657.94;5090538;28;20020;-76
2022/06/18 08:33:36;;;;;;;12.20;5.22;;;;;;;27.91;100.00;149727.47;5091044;28;20107;-79
2022/06/18 08:36:05;;;;;;;10.45;5.13;;;;;;;27.93;100.00;149733.84;5090752;28;20105;-79
2022/06/18 08:38:33;;;;;;;11.67;5.03;;;;;;;27.72;100.00;149679.84;5090057;28;20032;-77
2022/06/18 08:41:23;;;;;;;9.93;4.78;;;;;;;28.56;100.00;149889.75;5090831;28;20680;-80
2022/06/18 08:43:58;;;;;;;9.25;5.18;;;;;;;27.73;100.00;149683.69;5088877;28;20020;-83
2022/06/18 08:46:48;;;;;;;11.45;4.90;;;;;;;28.41;100.00;149853.66;5090755;28;20012;-82
2022/06/18 08:49:52;;;;;;;11.57;4.85;;;;;;;27.75;100.00;149688.84;5091290;28;20028;-77
2022/06/18 08:52:42;;;;;;;11.20;5.18;;;;;;;28.28;100.00;149820.22;5090248;28;20506;-81
2022/06/18 08:55:14;;;;;;;8.40;4.68;;;;;;;28.67;100.00;149918.13;5090097;28;20032;-76
2022/06/18 08:57:48;;;;;;;13.85;4.80;;;;;;;28.72;100.00;149931.00;5089450;28;20024;-76
2022/06/18 09:00:26;;;;;;;10.77;4.35;;;;;;;28.71;100.00;149927.13;5089111;28;20059;-77
2022/06/18 09:03:05;;;;;;;10.40;4.43;;;;;;;29.31;100.00;150079.16;5088767;28;20039;-76
2022/06/18 09:05:52;;;;;;;11.80;4.55;;;;;;;29.95;100.00;150239.00;5087669;28;20020;-75
2022/06/18 09:08:29;;;;;;;10.65;4.65;;;;;;;29.08;100.00;150021.13;5088836;28;20035;-76
2022/06/18 09:11:07;;;;;;;8.90;4.53;;;;;;;28.90;100.00;149974.75;5089020;28;20016;-75
2022/06/18 09:13:41;;;;;;;11.05;5.20;;;;;;;28.36;100.00;149840.81;5087817;28;20028;-74
2022/06/18 09:16:15;;;;;;;11.85;4.88;;;;;;;28.74;100.00;149934.84;5088929;28;20024;-76
2022/06/18 09:18:49;;;;;;;7.28;4.38;;;;;;;28.94;100.00;149985.09;5088112;28;20040;-78
2022/06/18 09:21:22;;;;;;;7.75;4.28;;;;;;;28.93;100.00;149982.50;5088546;28;20028;-77
2022/06/18 09:24:14;;;;;;;10.13;4.65;;;;;;;29.52;100.00;150132.03;5088775;28;20047;-75
2022/06/18 09:26:43;;;;;;;10.57;4.75;;;;;;;29.88;100.00;150221.00;5085382;28;20161;-75
2022/06/18 09:29:31;;;;;;;13.35;5.35;;;;;;;29.60;100.00;150150.03;5089061;28;20115;-75
2022/06/18 09:32:30;;;;;;;11.43;5.10;;;;;;;30.24;100.00;150312.47;5089125;28;20093;-74
2022/06/18 09:35:06;;;;;;;10.57;5.00;;;;;;;29.49;100.00;150122.97;5085978;28;20305;-74
2022/06/18 09:37:41;;;;;;;11.00;4.97;;;;;;;29.31;100.00;150079.16;5092801;28;20028;-76
2022/06/18 09:40:16;;;;;;;11.02;5.18;;;;;;;28.95;100.00;149988.94;5092088;28;20031;-77
2022/06/18 09:43:13;;;;;;;10.98;4.95;;;;;;;28.76;100.00;149940.00;5092387;28;20487;-76
2022/06/18 09:45:44;;;;;;;13.82;5.28;;;;;;;28.12;100.00;149780.25;5092485;28;20023;-77
2022/06/18 09:48:11;;;;;;;12.38;5.40;;;;;;;27.99;100.00;149746.81;5091650;28;20046;-75
2022/06/18 09:51:14;;;;;;;9.07;5.13;;;;;;;28.27;100.00;149818.88;5092268;28;20032;-75
2022/06/18 09:53:42;;;;;;;13.50;5.55;;;;;;;27.92;100.00;149731.31;5091739;28;20020;-74
2022/06/18 09:56:32;;;;;;;10.55;5.53;;;;;;;27.77;100.00;149692.69;5091827;28;20032;-76
2022/06/18 09:59:03;;;;;;;11.90;5.28;;;;;;;27.61;100.00;149651.50;5092764;28;20332;-74
2022/06/18 10:01:42;;;;;;;9.55;4.90;;;;;;;28.25;100.00;149812.47;5091813;28;20049;-73
2022/06/18 10:06:58;;;;;;;9.63;4.68;;;;;;;27.88;100.00;149721.00;5094056;28;20108;-77
2022/06/18 10:09:33;;;;;;;10.07;4.70;;;;;;;27.25;100.00;149561.38;5091344;28;20131;-78
2022/06/18 10:12:11;;;;;;;9.55;4.72;;;;;;;26.67;100.00;149418.53;5093052;28;20016;-81
2022/06/18 10:14:37;;;;;;;8.52;4.28;;;;;;;26.75;100.00;149437.84;5092202;28;20028;-78
2022/06/18 10:17:20;;;;;;;11.00;4.65;;;;;;;26.75;100.00;149436.56;5092438;28;20031;-79
2022/06/18 10:20:31;;;;;;;13.93;4.72;;;;;;;26.60;100.00;149399.19;5092763;28;20028;-78
2022/06/18 10:23:09;;;;;;;8.73;4.20;;;;;;;26.75;100.00;149436.56;5033444;28;20029;-78
2022/06/18 10:25:36;;;;;;;8.77;4.20;;;;;;;27.01;100.00;149502.19;5033855;28;20040;-79
2022/06/18 10:28:11;;;;;;;8.98;4.88;;;;;;;26.90;100.00;149475.16;5065049;28;20032;-76
2022/06/18 10:30:48;;;;;;;10.52;4.03;;;;;;;26.78;100.00;149445.56;5091262;28;20039;-76
2022/06/18 10:33:25;;;;;;;9.65;3.92;;;;;;;26.54;100.00;149385.06;5092073;28;20039;-80
2022/06/18 10:36:15;;;;;;;7.85;3.72;;;;;;;26.57;100.00;149391.47;5092646;28;20032;-75
2022/06/18 10:38:46;;;;;;;8.48;3.90;;;;;;;26.97;100.00;149491.88;5091461;28;20173;-77
2022/06/18 10:41:11;;;;;;;10.95;4.03;;;;;;;26.91;100.00;149476.44;5092054;28;20028;-78
2022/06/18 10:44:03;;;;;;;9.80;4.15;;;;;;;26.97;100.00;149491.88;5091088;28;20023;-77
2022/06/18 10:46:28;;;;;;;10.18;3.88;;;;;;;27.07;100.00;149517.63;5091286;28;20050;-76
2022/06/18 10:48:59;;;;;;;7.20;4.38;;;;;;;27.32;100.00;149580.72;5093087;28;20426;-75
2022/06/18 10:51:32;;;;;;;9.52;4.80;;;;;;;27.65;100.00;149661.81;5092235;28;20023;-79
2022/06/18 10:54:03;;;;;;;13.80;5.90;;;;;;;27.70;100.00;149675.97;5075017;28;20468;-80
2022/06/18 10:56:32;;;;;;;13.73;6.30;;;;;;;27.24;100.00;149560.09;5091807;28;20032;-78
2022/06/18 10:59:02;;;;;;;13.65;5.55;;;;;;;27.53;100.00;149632.19;5092414;28;20028;-78
2022/06/18 11:01:44;;;;;;;10.98;6.35;;;;;;;27.63;100.00;149656.66;5095276;28;20161;-78
2022/06/18 11:04:22;;;;;;;12.57;5.95;;;;;;;28.00;100.00;149750.69;5094879;28;20020;-78
2022/06/18 11:06:52;;;;;;;11.80;5.68;;;;;;;28.33;100.00;149833.06;5094713;28;20035;-77
2022/06/18 11:09:21;;;;;;;;;;;;;;;27.92;100.00;149730.00;5096515;28;20468;-80
2022/06/18 11:11:53;;;;;;;13.23;5.38;;;;;;;28.56;100.00;149889.75;5091338;28;20295;-80
2022/06/18 11:14:21;;;;;;;9.20;5.57;;;;;;;27.93;100.00;149732.59;5093019;28;20051;-79
2022/06/18 11:16:47;;;;;;;11.43;5.80;;;;;;;27.85;100.00;149712.00;5094274;28;20028;-82
2022/06/18 11:19:31;;;;;;;9.50;5.68;;;;;;;28.01;100.00;149753.22;5079575;28;20129;-79
2022/06/18 11:22:15;;;;;;;12.50;6.38;;;;;;;28.20;100.00;149800.91;5095590;28;20012;-81
2022/06/18 11:24:43;;;;;;;13.10;5.30;;;;;;;27.79;100.00;149696.56;5092422;28;20380;-81
2022/06/18 11:27:14;;;;;;;13.18;5.80;;;;;;;27.72;100.00;149679.84;5092141;28;20035;-76
2022/06/18 11:29:49;;;;;;;12.10;5.85;;;;;;;27.25;100.00;149562.63;5090907;28;20020;-77
2022/06/18 11:32:25;;;;;;;14.38;6.10;;;;;;;27.63;100.00;149656.66;5091821;28;20111;-75
2022/06/18 11:35:05;;;;;;;12.52;5.07;;;;;;;28.25;100.00;149813.75;5090556;28;20038;-77
2022/06/18 11:37:32;;;;;;;12.27;5.55;;;;;;;27.73;100.00;149682.38;5090284;28;20483;-76
2022/06/18 11:40:07;;;;;;;11.88;5.13;;;;;;;27.44;100.00;149609.00;5089640;28;20067;-76
2022/06/18 11:42:51;;;;;;;12.55;5.15;;;;;;;27.47;100.00;149618.06;5090324;28;20070;-74